createdAt,value
2023-02-04T00:00:16.012Z,8.30
2023-02-04T00:02:43.247Z,8.40
2023-02-04T00:05:11.194Z,8.50
2023-02-04T00:07:39.958Z,8.50
2023-02-04T00:10:08.700Z,8.60
2023-02-04T00:12:36.227Z,8.60
2023-02-04T00:15:04.108Z,8.60
2023-02-04T00:17:31.018Z,8.60
2023-02-04T00:19:57.960Z,8.60
2023-02-04T00:22:26.564Z,8.60
2023-02-04T00:24:53.483Z,8.50
2023-02-04T00:27:20.433Z,8.40
2023-02-04T00:29:47.344Z,8.40
2023-02-04T00:32:14.313Z,8.30
2023-02-04T00:34:41.549Z,8.20
2023-02-04T00:37:08.452Z,8.20
2023-02-04T00:39:35.430Z,8.20
2023-02-04T00:42:02.336Z,8.20
2023-02-04T00:44:29.278Z,8.20
2023-02-04T00:46:56.237Z,8.30
2023-02-04T00:49:23.395Z,8.30
2023-02-04T00:51:51.417Z,8.40
2023-02-04T00:54:18.319Z,8.40
2023-02-04T00:56:45.693Z,8.40
2023-02-04T00:59:12.584Z,8.40
2023-02-04T01:01:39.604Z,8.50
2023-02-04T01:04:06.527Z,8.50
2023-02-04T01:06:33.787Z,8.50
2023-02-04T01:09:01.595Z,8.50
2023-02-04T01:11:29.431Z,8.60
2023-02-04T01:13:56.712Z,8.60
2023-02-04T01:16:23.697Z,8.70
2023-02-04T01:18:50.650Z,8.70
2023-02-04T01:21:17.643Z,8.70
2023-02-04T01:23:44.550Z,8.70
2023-02-04T01:26:11.457Z,8.80
2023-02-04T01:28:38.322Z,8.80
2023-02-04T01:31:05.387Z,8.80
2023-02-04T01:33:32.788Z,8.80
2023-02-04T01:35:59.806Z,8.90
2023-02-04T01:38:26.766Z,8.90
2023-02-04T01:40:54.010Z,8.90
2023-02-04T01:43:22.911Z,8.90
2023-02-04T01:45:51.050Z,8.90
2023-02-04T01:48:20.619Z,8.90
2023-02-04T01:50:53.287Z,8.90
2023-02-04T01:53:24.746Z,8.80
2023-02-04T01:55:53.061Z,8.90
2023-02-04T01:58:20.126Z,8.90
2023-02-04T02:00:47.143Z,8.90
2023-02-04T02:03:14.088Z,8.80
2023-02-04T02:05:42.676Z,8.80
2023-02-04T02:08:11.050Z,8.80
2023-02-04T02:10:39.821Z,8.80
2023-02-04T02:13:08.871Z,8.80
2023-02-04T02:15:35.922Z,8.70
2023-02-04T02:18:04.100Z,8.80
2023-02-04T02:20:31.385Z,8.80
2023-02-04T02:23:13.816Z,8.80
2023-02-04T02:25:40.970Z,8.80
2023-02-04T02:28:12.570Z,8.80
2023-02-04T02:30:40.778Z,8.80
2023-02-04T02:33:08.333Z,8.80
2023-02-04T02:35:35.500Z,8.70
2023-02-04T02:38:02.422Z,8.70
2023-02-04T02:40:29.715Z,8.70
2023-02-04T02:42:57.171Z,8.70
2023-02-04T02:45:27.272Z,8.70
2023-02-04T02:47:56.328Z,8.70
2023-02-04T02:50:27.203Z,8.70
2023-02-04T02:52:54.681Z,8.80
2023-02-04T02:55:24.728Z,8.80
2023-02-04T02:57:53.698Z,8.80
2023-02-04T03:00:26.947Z,8.80
2023-02-04T03:03:12.698Z,8.90
2023-02-04T03:05:43.640Z,8.90
2023-02-04T03:08:12.849Z,9.00
2023-02-04T03:10:40.000Z,9.00
2023-02-04T03:13:07.281Z,9.10
2023-02-04T03:15:34.895Z,9.10
2023-02-04T03:18:02.615Z,9.00
2023-02-04T03:20:31.925Z,9.10
2023-02-04T03:22:59.605Z,9.10
2023-02-04T03:25:28.365Z,9.10
2023-02-04T03:27:58.007Z,9.10
2023-02-04T03:30:26.079Z,9.10
2023-02-04T03:32:53.579Z,9.10
2023-02-04T03:35:20.970Z,9.10
2023-02-04T03:37:48.391Z,9.10
2023-02-04T03:40:16.143Z,9.10
2023-02-04T03:42:43.089Z,9.10
2023-02-04T03:45:10.229Z,9.10
2023-02-04T03:47:37.439Z,9.10
2023-02-04T03:50:05.290Z,9.10
2023-02-04T03:52:32.549Z,9.10
2023-02-04T03:55:00.299Z,9.00
2023-02-04T03:57:27.425Z,9.00
2023-02-04T03:59:54.334Z,9.00
2023-02-04T04:02:21.310Z,9.00
2023-02-04T04:04:48.373Z,9.10
2023-02-04T04:07:15.577Z,9.10
2023-02-04T04:09:42.563Z,9.10
2023-02-04T04:12:09.517Z,9.20
2023-02-04T04:14:37.076Z,9.10
2023-02-04T04:17:04.044Z,9.10
2023-02-04T04:19:32.314Z,9.10
2023-02-04T04:21:59.348Z,9.10
2023-02-04T04:24:26.760Z,9.10
2023-02-04T04:26:53.850Z,9.10
2023-02-04T04:29:20.698Z,9.10
2023-02-04T04:31:47.668Z,9.00
2023-02-04T04:34:14.573Z,9.00
2023-02-04T04:36:41.428Z,9.00
2023-02-04T04:39:08.308Z,9.00
2023-02-04T04:41:35.182Z,9.00
2023-02-04T04:44:02.069Z,9.00
2023-02-04T04:46:28.993Z,8.90
2023-02-04T04:48:55.975Z,9.00
2023-02-04T04:51:22.879Z,9.00
2023-02-04T04:53:49.799Z,9.00
2023-02-04T04:56:16.691Z,9.00
2023-02-04T04:58:43.597Z,9.00
2023-02-04T05:01:10.598Z,9.00
2023-02-04T05:03:37.762Z,9.00
2023-02-04T05:06:04.779Z,9.10
2023-02-04T05:08:31.713Z,9.00
2023-02-04T05:10:58.554Z,9.00
2023-02-04T05:13:25.493Z,9.00
2023-02-04T05:15:52.360Z,9.10
2023-02-04T05:18:19.265Z,9.10
2023-02-04T05:20:46.148Z,9.10
2023-02-04T05:23:13.202Z,9.10
2023-02-04T05:25:40.139Z,9.10
2023-02-04T05:28:07.655Z,9.10
2023-02-04T05:30:35.163Z,9.00
2023-02-04T05:33:02.270Z,9.10
2023-02-04T05:35:29.186Z,9.00
2023-02-04T05:37:56.110Z,9.00
2023-02-04T05:40:23.050Z,9.00
2023-02-04T05:42:50.004Z,9.00
2023-02-04T05:45:18.976Z,9.00
2023-02-04T05:47:46.169Z,9.00
2023-02-04T05:50:13.173Z,9.00
2023-02-04T05:52:40.553Z,9.00
2023-02-04T05:55:08.499Z,9.00
2023-02-04T05:57:35.486Z,8.90
2023-02-04T06:00:02.693Z,8.90
2023-02-04T06:02:29.642Z,8.90
2023-02-04T06:04:56.617Z,8.90
2023-02-04T06:07:23.662Z,8.90
2023-02-04T06:09:53.761Z,8.90
2023-02-04T06:12:20.641Z,8.90
2023-02-04T06:14:47.606Z,8.90
2023-02-04T06:17:14.509Z,8.90
2023-02-04T06:19:41.407Z,9.00
2023-02-04T06:22:08.341Z,9.00
2023-02-04T06:24:35.265Z,9.00
2023-02-04T06:27:02.363Z,9.10
2023-02-04T06:29:29.273Z,9.10
2023-02-04T06:31:56.287Z,9.10
2023-02-04T06:34:23.321Z,9.10
2023-02-04T06:36:50.222Z,9.00
2023-02-04T06:39:17.216Z,9.10
2023-02-04T06:41:44.181Z,9.10
2023-02-04T06:44:11.138Z,9.10
2023-02-04T06:46:38.057Z,9.10
2023-02-04T06:49:04.958Z,9.10
2023-02-04T06:51:32.193Z,9.10
2023-02-04T06:53:59.581Z,9.10
2023-02-04T06:56:29.367Z,9.10
2023-02-04T06:58:56.301Z,9.20
2023-02-04T07:01:23.500Z,9.20
2023-02-04T07:03:50.528Z,9.10
2023-02-04T07:06:17.445Z,9.10
2023-02-04T07:08:44.920Z,9.10
2023-02-04T07:11:12.000Z,9.10
2023-02-04T07:13:38.940Z,9.10
2023-02-04T07:16:07.422Z,9.20
2023-02-04T07:18:34.373Z,9.20
2023-02-04T07:21:01.348Z,9.10
2023-02-04T07:23:28.742Z,9.10
2023-02-04T07:25:59.552Z,9.10
2023-02-04T07:28:26.934Z,9.10
2023-02-04T07:30:54.005Z,9.10
2023-02-04T07:33:20.925Z,9.10
2023-02-04T07:35:47.962Z,9.10
2023-02-04T07:38:14.900Z,9.00
2023-02-04T07:40:41.793Z,9.00
2023-02-04T07:43:08.798Z,9.00
2023-02-04T07:45:35.675Z,9.00
2023-02-04T07:48:02.601Z,9.00
2023-02-04T07:50:29.625Z,9.00
2023-02-04T07:52:56.974Z,9.00
2023-02-04T07:55:24.123Z,9.00
2023-02-04T07:57:51.220Z,8.90
2023-02-04T08:00:18.484Z,8.90
2023-02-04T08:02:45.474Z,8.90
2023-02-04T08:05:13.167Z,8.90
2023-02-04T08:07:40.107Z,8.80
2023-02-04T08:10:08.828Z,8.80
2023-02-04T08:12:35.719Z,8.80
2023-02-04T08:15:02.758Z,8.80
2023-02-04T08:17:29.738Z,8.80
2023-02-04T08:19:56.976Z,8.90
2023-02-04T08:22:24.100Z,8.90
2023-02-04T08:24:51.128Z,9.00
2023-02-04T08:27:18.142Z,9.00
2023-02-04T08:29:45.284Z,9.00
2023-02-04T08:32:13.417Z,9.00
2023-02-04T08:34:40.645Z,9.00
2023-02-04T08:37:07.575Z,9.00
2023-02-04T08:39:34.514Z,9.00
2023-02-04T08:42:01.448Z,9.00
2023-02-04T08:44:28.386Z,8.90
2023-02-04T08:46:55.376Z,9.00
2023-02-04T08:49:22.315Z,9.00
2023-02-04T08:51:49.248Z,9.00
2023-02-04T08:54:16.247Z,9.00
2023-02-04T08:56:44.204Z,9.00
2023-02-04T08:59:11.205Z,9.00
2023-02-04T09:01:38.127Z,9.00
2023-02-04T09:04:05.052Z,9.00
2023-02-04T09:06:31.944Z,9.10
2023-02-04T09:08:59.055Z,9.10
2023-02-04T09:11:26.068Z,9.10
2023-02-04T09:13:53.253Z,9.10
2023-02-04T09:16:20.221Z,9.10
2023-02-04T09:18:47.235Z,9.10
2023-02-04T09:21:14.305Z,9.10
2023-02-04T09:23:41.224Z,9.20
2023-02-04T09:26:08.175Z,9.20
2023-02-04T09:28:35.112Z,9.20
2023-02-04T09:31:04.254Z,9.20
2023-02-04T09:33:31.441Z,9.30
2023-02-04T09:35:58.498Z,9.30
2023-02-04T09:38:25.535Z,9.30
2023-02-04T09:40:56.090Z,9.30
2023-02-04T09:43:25.859Z,9.40
2023-02-04T09:45:54.299Z,9.40
2023-02-04T09:48:23.514Z,9.40
2023-02-04T09:50:51.759Z,9.40
2023-02-04T09:53:24.327Z,9.40
2023-02-04T09:55:51.986Z,9.40
2023-02-04T09:58:21.708Z,9.50
2023-02-04T10:00:58.217Z,9.50
2023-02-04T10:03:25.472Z,9.50
2023-02-04T10:05:52.841Z,9.50
2023-02-04T10:08:25.062Z,9.50
2023-02-04T10:10:52.148Z,9.50
2023-02-04T10:13:22.685Z,9.60
2023-02-04T10:15:50.941Z,9.60
2023-02-04T10:18:34.729Z,9.60
2023-02-04T10:21:17.363Z,9.60
2023-02-04T10:23:49.410Z,9.70
2023-02-04T10:26:17.173Z,9.60
2023-02-04T10:28:44.169Z,9.70
2023-02-04T10:31:33.945Z,9.70
2023-02-04T10:34:11.285Z,9.80
2023-02-04T10:36:39.340Z,9.70
2023-02-04T10:39:30.421Z,9.70
2023-02-04T10:42:01.696Z,9.70
2023-02-04T10:44:31.845Z,9.80
2023-02-04T10:47:08.797Z,9.80
2023-02-04T10:49:36.652Z,9.90
2023-02-04T10:52:17.940Z,9.90
2023-02-04T10:54:44.895Z,9.90
2023-02-04T10:57:29.908Z,10.00
2023-02-04T11:00:02.313Z,10.10
2023-02-04T11:02:48.282Z,10.20
2023-02-04T11:05:22.499Z,10.40
2023-02-04T11:07:50.300Z,10.50
2023-02-04T11:10:23.245Z,10.30
2023-02-04T11:12:56.234Z,10.30
2023-02-04T11:15:45.028Z,10.20
2023-02-04T11:18:14.065Z,10.10
2023-02-04T11:20:42.194Z,10.00
2023-02-04T11:23:27.386Z,10.00
2023-02-04T11:26:21.887Z,9.90
2023-02-04T11:28:50.890Z,9.80
2023-02-04T11:31:20.763Z,9.90
2023-02-04T11:33:49.631Z,9.90
2023-02-04T11:36:18.036Z,9.80
2023-02-04T11:38:49.937Z,9.90
2023-02-04T11:41:33.425Z,9.90
2023-02-04T11:44:00.665Z,9.90
2023-02-04T11:46:29.490Z,9.80
2023-02-04T11:48:58.599Z,9.90
2023-02-04T11:51:32.635Z,9.80
2023-02-04T11:54:00.513Z,9.80
2023-02-04T11:56:30.031Z,9.70
2023-02-04T11:58:59.017Z,9.70
2023-02-04T12:01:32.346Z,9.70
2023-02-04T12:04:02.131Z,9.60
2023-02-04T12:06:33.154Z,9.60
2023-02-04T12:09:07.931Z,9.60
2023-02-04T12:11:35.614Z,9.60
2023-02-04T12:14:10.892Z,9.50
2023-02-04T12:16:56.616Z,9.50
2023-02-04T12:19:25.221Z,9.40
2023-02-04T12:21:53.334Z,9.50
2023-02-04T12:24:20.335Z,9.40
2023-02-04T12:26:47.297Z,9.50
2023-02-04T12:29:14.233Z,9.50
2023-02-04T12:31:41.317Z,9.50
2023-02-04T12:34:08.305Z,9.50
2023-02-04T12:36:35.225Z,9.60
2023-02-04T12:39:03.149Z,9.60
2023-02-04T12:41:30.137Z,9.60
2023-02-04T12:43:57.006Z,9.60
2023-02-04T12:46:24.097Z,9.60
2023-02-04T12:48:51.910Z,9.60
2023-02-04T12:51:20.960Z,9.60
2023-02-04T12:53:48.739Z,9.60
2023-02-04T12:56:16.165Z,9.60
2023-02-04T12:58:43.054Z,9.50
2023-02-04T13:01:10.103Z,9.50
2023-02-04T13:03:37.047Z,9.50
2023-02-04T13:06:04.197Z,9.50
2023-02-04T13:08:31.181Z,9.50
2023-02-04T13:10:58.154Z,9.50
2023-02-04T13:13:25.078Z,9.50
2023-02-04T13:15:52.035Z,9.40
2023-02-04T13:18:18.958Z,9.40
2023-02-04T13:20:46.257Z,9.40
2023-02-04T13:23:14.156Z,9.60
2023-02-04T13:25:41.059Z,9.70
2023-02-04T13:28:08.021Z,9.70
2023-02-04T13:30:35.072Z,9.70
2023-02-04T13:33:02.272Z,9.70
2023-02-04T13:35:29.181Z,9.70
2023-02-04T13:37:56.607Z,9.60
2023-02-04T13:40:23.610Z,9.60
2023-02-04T13:42:50.560Z,9.50
2023-02-04T13:45:18.967Z,9.40
2023-02-04T13:47:48.035Z,9.30
2023-02-04T13:50:16.589Z,9.30
2023-02-04T13:52:43.520Z,9.30
2023-02-04T13:55:10.769Z,9.30
2023-02-04T13:57:39.213Z,9.30
2023-02-04T14:00:07.413Z,9.30
2023-02-04T14:02:34.677Z,9.20
2023-02-04T14:05:01.842Z,9.10
2023-02-04T14:07:30.590Z,9.20
2023-02-04T14:09:57.664Z,9.30
2023-02-04T14:12:24.670Z,9.30
2023-02-04T14:14:52.391Z,9.30
2023-02-04T14:17:19.382Z,9.50
2023-02-04T14:19:46.381Z,9.50
2023-02-04T14:22:13.795Z,9.50
2023-02-04T14:24:42.849Z,9.60
2023-02-04T14:27:10.885Z,9.60
2023-02-04T14:29:37.777Z,9.60
2023-02-04T14:32:05.163Z,9.60
2023-02-04T14:34:32.184Z,9.70
2023-02-04T14:36:59.240Z,9.80
2023-02-04T14:39:26.282Z,9.80
2023-02-04T14:41:53.277Z,9.80
2023-02-04T14:44:21.089Z,9.80
2023-02-04T14:46:49.292Z,9.80
2023-02-04T14:49:17.002Z,9.80
2023-02-04T14:51:44.428Z,9.80
2023-02-04T14:54:11.628Z,9.80
2023-02-04T14:56:38.986Z,9.80
2023-02-04T14:59:06.197Z,9.80
2023-02-04T15:01:33.311Z,9.80
2023-02-04T15:04:00.310Z,9.80
2023-02-04T15:06:27.464Z,9.80
2023-02-04T15:08:54.479Z,9.80
2023-02-04T15:11:21.733Z,9.80
2023-02-04T15:13:48.746Z,9.80
2023-02-04T15:16:15.724Z,9.80
2023-02-04T15:18:42.974Z,9.80
2023-02-04T15:21:10.239Z,9.80
2023-02-04T15:23:37.890Z,9.80
2023-02-04T15:26:05.056Z,9.80
2023-02-04T15:28:31.993Z,9.80
2023-02-04T15:30:59.168Z,9.80
2023-02-04T15:33:26.353Z,9.70
2023-02-04T15:35:53.460Z,9.80
2023-02-04T15:38:20.599Z,9.70
2023-02-04T15:40:47.944Z,9.70
2023-02-04T15:43:14.939Z,9.80
2023-02-04T15:45:44.092Z,9.70
2023-02-04T15:48:11.612Z,9.70
2023-02-04T15:50:39.773Z,9.80
2023-02-04T15:53:06.908Z,9.80
2023-02-04T15:55:34.849Z,9.80
2023-02-04T15:58:01.847Z,9.80
2023-02-04T16:00:29.039Z,9.80
2023-02-04T16:02:56.262Z,9.80
2023-02-04T16:05:23.661Z,9.80
2023-02-04T16:07:50.652Z,9.80
2023-02-04T16:10:19.336Z,9.80
2023-02-04T16:12:47.682Z,9.80
2023-02-04T16:15:15.456Z,9.80
2023-02-04T16:17:43.376Z,9.80
2023-02-04T16:20:11.683Z,9.80
2023-02-04T16:22:38.733Z,9.80
2023-02-04T16:25:06.978Z,9.80
2023-02-04T16:27:34.213Z,9.80
2023-02-04T16:30:01.810Z,9.80
2023-02-04T16:32:29.366Z,9.80
2023-02-04T16:34:56.935Z,9.50
2023-02-04T16:37:24.265Z,9.00
2023-02-04T16:39:52.290Z,8.50
2023-02-04T16:42:19.310Z,8.40
2023-02-04T16:44:46.347Z,8.20
2023-02-04T16:47:13.965Z,8.10
2023-02-04T16:49:40.840Z,8.00
2023-02-04T16:52:10.852Z,8.00
2023-02-04T16:54:37.854Z,8.00
2023-02-04T16:57:04.972Z,7.90
2023-02-04T16:59:32.332Z,7.90
2023-02-04T17:02:00.875Z,7.90
2023-02-04T17:04:28.808Z,7.90
2023-02-04T17:06:56.730Z,7.90
2023-02-04T17:09:23.734Z,7.80
2023-02-04T17:11:51.240Z,7.80
2023-02-04T17:14:18.903Z,7.80
2023-02-04T17:16:47.237Z,7.70
2023-02-04T17:19:17.565Z,7.70
2023-02-04T17:21:45.356Z,7.70
2023-02-04T17:24:12.701Z,7.60
2023-02-04T17:26:40.395Z,7.60
2023-02-04T17:29:12.395Z,7.60
2023-02-04T17:31:39.964Z,7.60
2023-02-04T17:34:07.131Z,7.50
2023-02-04T17:36:34.199Z,7.60
2023-02-04T17:39:02.479Z,7.50
2023-02-04T17:41:30.794Z,7.60
2023-02-04T17:43:59.046Z,7.50
2023-02-04T17:46:26.258Z,7.50
2023-02-04T17:48:53.351Z,7.50
2023-02-04T17:51:20.480Z,7.40
2023-02-04T17:53:47.558Z,7.30
2023-02-04T17:56:15.149Z,7.10
2023-02-04T17:58:43.092Z,7.00
2023-02-04T18:01:15.141Z,6.90
2023-02-04T18:03:42.964Z,6.80
2023-02-04T18:06:19.914Z,6.70
2023-02-04T18:08:47.106Z,6.70
2023-02-04T18:11:25.913Z,6.60
2023-02-04T18:13:59.843Z,6.60
2023-02-04T18:16:33.987Z,6.60
2023-02-04T18:19:17.343Z,6.50
2023-02-04T18:21:44.708Z,6.40
2023-02-04T18:24:19.462Z,6.40
2023-02-04T18:26:52.587Z,6.30
2023-02-04T18:29:26.694Z,6.30
2023-02-04T18:31:59.537Z,6.20
2023-02-04T18:34:41.335Z,6.20
2023-02-04T18:37:23.439Z,6.20
2023-02-04T18:39:50.447Z,6.10
2023-02-04T18:42:24.711Z,6.10
2023-02-04T18:44:52.677Z,6.10
2023-02-04T18:47:32.657Z,6.10
2023-02-04T18:50:01.487Z,6.10
2023-02-04T18:52:36.860Z,6.10
2023-02-04T18:55:29.005Z,6.10
2023-02-04T18:57:55.966Z,6.10
2023-02-04T19:00:30.897Z,6.10
2023-02-04T19:03:20.456Z,6.10
2023-02-04T19:05:49.612Z,6.10
2023-02-04T19:08:19.294Z,6.10
2023-02-04T19:10:46.354Z,6.10
2023-02-04T19:13:19.372Z,6.10
2023-02-04T19:16:11.973Z,6.10
2023-02-04T19:18:43.942Z,6.10
2023-02-04T19:21:22.763Z,6.10
2023-02-04T19:23:50.872Z,6.00
2023-02-04T19:26:29.778Z,6.00
2023-02-04T19:28:57.308Z,6.00
2023-02-04T19:31:36.345Z,6.00
2023-02-04T19:34:28.705Z,6.00
2023-02-04T19:36:55.938Z,5.90
2023-02-04T19:39:40.516Z,6.00
2023-02-04T19:42:31.772Z,5.90
2023-02-04T19:45:01.684Z,5.90
2023-02-04T19:47:42.128Z,5.90
2023-02-04T19:50:25.824Z,5.80
2023-02-04T19:53:09.757Z,5.70
2023-02-04T19:55:42.243Z,5.70
2023-02-04T19:58:28.316Z,5.60
2023-02-04T20:00:58.257Z,5.50
2023-02-04T20:03:31.460Z,5.50
2023-02-04T20:06:10.164Z,5.50
2023-02-04T20:08:44.507Z,5.50
2023-02-04T20:11:35.632Z,5.50
2023-02-04T20:14:14.504Z,5.40
2023-02-04T20:16:53.727Z,5.30
2023-02-04T20:19:22.322Z,5.30
2023-02-04T20:22:17.299Z,5.30
2023-02-04T20:24:56.047Z,5.30
2023-02-04T20:27:37.793Z,5.30
2023-02-04T20:30:11.951Z,5.30
2023-02-04T20:32:41.630Z,5.20
2023-02-04T20:35:14.586Z,5.20
2023-02-04T20:37:43.131Z,5.20
2023-02-04T20:40:34.115Z,5.10
2023-02-04T20:43:12.892Z,5.10
2023-02-04T20:46:04.727Z,5.10
2023-02-04T20:48:38.478Z,5.00
2023-02-04T20:51:14.408Z,5.00
2023-02-04T20:53:59.089Z,5.00
2023-02-04T20:56:37.484Z,5.00
2023-02-04T20:59:32.925Z,5.00
2023-02-04T21:02:02.087Z,5.00
2023-02-04T21:04:39.308Z,4.90
2023-02-04T21:07:27.910Z,4.90
2023-02-04T21:09:54.890Z,4.90
2023-02-04T21:12:21.844Z,4.90
2023-02-04T21:14:48.844Z,4.90
2023-02-04T21:17:15.710Z,4.90
2023-02-04T21:19:42.667Z,5.00
2023-02-04T21:22:10.594Z,5.00
2023-02-04T21:24:37.507Z,5.00
2023-02-04T21:27:04.592Z,5.00
2023-02-04T21:29:31.517Z,5.00
2023-02-04T21:31:58.480Z,5.10
2023-02-04T21:34:25.499Z,5.00
2023-02-04T21:36:52.486Z,5.00
2023-02-04T21:39:20.850Z,5.00
2023-02-04T21:41:47.897Z,4.90
2023-02-04T21:44:14.880Z,4.90
2023-02-04T21:46:41.858Z,4.90
2023-02-04T21:49:08.802Z,4.80
2023-02-04T21:51:35.709Z,4.80
2023-02-04T21:54:05.259Z,4.80
2023-02-04T21:56:32.141Z,4.70
2023-02-04T21:58:59.146Z,4.70
2023-02-04T22:01:26.071Z,4.70
2023-02-04T22:03:53.193Z,4.60
2023-02-04T22:06:20.278Z,4.60
2023-02-04T22:08:47.376Z,4.60
2023-02-04T22:11:14.282Z,4.60
2023-02-04T22:14:00.958Z,4.60
2023-02-04T22:16:28.170Z,4.60
2023-02-04T22:18:55.661Z,4.50
2023-02-04T22:21:22.554Z,4.50
2023-02-04T22:23:49.427Z,4.50
2023-02-04T22:26:19.534Z,4.50
2023-02-04T22:28:46.448Z,4.50
2023-02-04T22:31:14.890Z,4.50
2023-02-04T22:33:41.895Z,4.50
2023-02-04T22:36:08.920Z,4.50
2023-02-04T22:38:35.797Z,4.50
2023-02-04T22:41:02.655Z,4.50
2023-02-04T22:43:29.767Z,4.40
2023-02-04T22:45:59.473Z,4.40
2023-02-04T22:48:26.362Z,4.40
2023-02-04T22:50:55.626Z,4.40
2023-02-04T22:53:22.742Z,4.40
2023-02-04T22:55:49.676Z,4.40
2023-02-04T22:58:17.143Z,4.40
2023-02-04T23:00:44.604Z,4.40
2023-02-04T23:03:11.533Z,4.40
2023-02-04T23:05:38.626Z,4.30
2023-02-04T23:08:07.062Z,4.30
2023-02-04T23:10:34.099Z,4.40
2023-02-04T23:13:00.983Z,4.50
2023-02-04T23:15:27.885Z,4.50
2023-02-04T23:17:54.773Z,4.60
2023-02-04T23:20:21.660Z,4.50
2023-02-04T23:22:48.737Z,4.60
2023-02-04T23:25:15.732Z,4.60
2023-02-04T23:27:42.691Z,4.60
2023-02-04T23:30:10.630Z,4.70
2023-02-04T23:32:37.574Z,4.70
2023-02-04T23:35:07.503Z,4.70
2023-02-04T23:37:35.150Z,4.70
2023-02-04T23:40:02.775Z,4.60
2023-02-04T23:42:31.353Z,4.60
2023-02-04T23:44:58.319Z,4.60
2023-02-04T23:47:28.442Z,4.50
2023-02-04T23:49:55.378Z,4.50
2023-02-04T23:52:22.523Z,4.40
2023-02-04T23:54:49.411Z,4.40
2023-02-04T23:57:16.380Z,4.40
2023-02-04T23:59:43.261Z,4.40
